Date,TemperatureHighF,TemperatureAvgF,TemperatureLowF,DewpointHighF,DewpointAvgF,DewpointLowF,HumidityHigh,HumidityAvg,HumidityLow,PressureMaxIn,PressureMinIn,WindSpeedMaxMPH,WindSpeedAvgMPH,GustSpeedMaxMPH,PrecipitationSumIn
2013-1-1,30.6,25.5,18.9,32.0,32.0,32.0,55,42,33,28.68,28.59,0,0,0,0.00
2013-1-2,25.5,15.7,7.0,32.0,32.0,32.0,47,34,24,28.80,28.68,0,0,0,0.00
2013-1-3,29.5,17.3,1.6,32.0,32.0,32.0,45,35,23,28.77,28.68,0,0,0,0.00
2013-1-4,32.0,26.1,22.3,32.0,32.0,32.0,42,31,23,28.83,28.71,0,0,0,0.00
2013-1-5,35.2,28.8,21.0,32.0,32.0,32.0,41,32,22,28.91,28.71,0,0,0,0.00
2013-1-6,36.0,32.9,28.9,32.0,32.0,32.0,49,39,31,28.83,28.56,0,0,0,0.00
2013-1-7,37.8,30.6,27.7,32.0,32.0,32.0,48,37,21,29.03,28.80,0,0,0,0.00
2013-1-8,45.1,32.3,25.3,32.0,32.0,32.0,43,33,20,28.91,28.83,0,0,0,0.00
2013-1-9,48.4,38.2,28.2,32.0,32.0,32.0,52,33,19,31.01,28.83,0,0,0,0.00
2013-1-10,42.8,33.4,22.5,32.0,32.0,32.0,55,35,20,31.01,31.01,0,0,0,0.00
2013-1-11,54.1,46.0,38.5,48.2,38.5,32.0,90,61,21,31.01,20.53,0,0,0,0.00
2013-1-12,60.4,52.7,45.9,57.2,42.3,32.0,98,71,35,17.72,17.72,0,0,0,0.00
2013-1-13,62.4,53.9,36.7,57.2,38.6,32.0,92,57,34,17.72,17.72,0,0,0,0.00
2013-1-14,36.3,28.9,25.5,32.0,32.0,32.0,77,50,33,17.72,17.72,0,0,0,0.00
2013-1-15,34.7,28.3,25.5,32.0,32.0,32.0,42,34,22,17.72,17.72,0,0,0,0.00
2013-1-16,34.9,30.4,27.0,32.0,32.0,32.0,45,32,23,17.72,17.72,0,0,0,0.00
2013-1-17,32.0,31.6,31.5,32.0,32.0,32.0,38,32,25,17.72,17.72,0,0,0,0.00
2013-1-20,30.2,23.7,17.8,32.0,32.0,32.0,32,23,21,17.72,17.72,0,0,0,0.00
2013-1-21,23.5,16.6,7.2,32.0,32.0,32.0,27,25,22,17.72,17.72,0,0,0,0.00
2013-1-22,20.5,7.5,3.6,32.0,32.0,32.0,27,25,23,17.72,17.72,0,0,0,0.00
2013-1-23,28.6,10.7,2.8,32.0,32.0,32.0,26,24,22,17.72,17.72,0,0,0,0.00
2013-1-24,33.3,14.0,4.8,32.0,32.0,32.0,44,25,21,17.72,17.72,0,0,0,0.00
2013-1-25,21.0,14.6,7.7,32.0,32.0,32.0,45,31,24,17.72,17.72,0,0,0,0.00
2013-1-26,32.4,21.8,16.2,32.0,32.0,32.0,48,36,23,17.72,17.72,0,0,0,0.00
2013-1-27,37.6,22.3,4.5,32.0,32.0,32.0,40,30,21,17.72,17.72,0,0,0,0.00
2013-1-28,47.3,39.6,28.2,48.2,39.3,32.0,98,87,33,17.72,17.72,0,0,0,0.00
2013-1-29,58.8,52.1,44.6,53.6,45.9,32.0,98,82,36,17.72,17.72,0,0,0,0.00
2013-1-30,61.2,54.8,36.0,48.2,35.8,32.0,74,47,26,17.72,17.72,0,0,0,0.00
2013-1-31,35.2,24.6,15.4,32.0,32.0,32.0,54,33,24,17.72,17.72,0,0,0,0.00
2013-2-1,25.3,14.8,10.9,32.0,32.0,32.0,36,29,23,17.72,17.72,0,0,0,0.00
2013-2-2,23.5,17.0,10.9,32.0,32.0,32.0,48,35,27,17.72,17.72,0,0,0,0.00
2013-2-3,29.7,19.7,14.0,32.0,32.0,32.0,51,38,21,17.72,17.72,0,0,0,0.00
2013-2-4,27.9,20.5,14.9,32.0,32.0,32.0,46,39,28,17.72,17.72,0,0,0,0.00
2013-2-5,32.0,26.2,22.6,32.0,32.0,32.0,47,32,23,17.72,17.72,0,0,0,0.00
2013-2-6,51.8,27.9,16.2,32.0,32.0,32.0,51,31,18,17.72,17.72,0,0,0,0.00
2013-2-7,49.1,33.1,16.5,32.0,32.0,32.0,34,25,19,17.72,17.72,0,0,0,0.00
2013-2-8,38.3,35.7,28.9,32.0,32.0,32.0,70,50,30,17.72,17.72,0,0,0,0.00
2013-2-15,36.0,28.6,23.0,32.0,32.0,32.0,43,36,27,28.68,28.62,0,0,0,0.00
2013-2-16,55.9,26.9,16.2,32.0,32.0,32.0,48,33,17,28.68,28.56,0,0,0,0.00
2013-2-17,30.9,17.7,4.3,32.0,32.0,32.0,51,32,20,28.83,28.56,0,0,0,0.00
2013-2-18,44.2,26.1,0.3,32.0,32.0,32.0,37,24,20,28.83,28.35,0,0,0,0.00
2013-2-19,46.0,29.9,15.4,32.0,32.0,32.0,70,46,20,28.56,28.20,0,0,0,0.00
2013-2-20,25.0,18.6,14.2,32.0,32.0,32.0,43,32,22,28.80,28.56,0,0,0,0.00
2013-2-21,31.1,19.9,15.4,32.0,32.0,32.0,47,35,23,28.94,28.80,0,0,0,0.00
2013-2-22,36.7,28.3,17.4,32.0,32.0,32.0,71,52,32,28.85,28.53,0,0,0,0.00
2013-2-23,36.3,32.7,28.6,32.0,32.0,32.0,59,38,22,28.56,28.50,0,0,0,0.00
2013-2-24,34.9,29.4,25.7,32.0,32.0,32.0,36,31,22,28.74,28.50,0,0,0,0.00
2013-2-25,59.2,33.3,17.4,32.0,32.0,32.0,49,31,17,28.83,28.65,0,0,0,0.00
2013-2-26,36.3,32.7,27.3,32.0,32.0,32.0,88,52,22,28.68,28.12,0,0,0,0.00
2013-2-27,40.1,36.3,32.0,37.4,33.6,32.0,98,84,61,28.26,28.12,0,0,0,0.00
2013-2-28,33.6,31.7,29.1,32.0,32.0,32.0,90,71,51,28.50,28.20,0,0,0,0.00
2013-3-1,30.9,27.2,24.3,32.0,32.0,32.0,65,47,33,28.62,28.47,0,0,0,0.00
2013-3-2,33.4,25.7,22.8,32.0,32.0,32.0,55,43,25,28.59,28.56,0,0,0,0.00
2013-3-3,32.0,24.0,20.1,32.0,32.0,32.0,53,42,28,28.62,28.56,0,0,0,0.00
2013-3-4,56.3,26.4,7.5,32.0,32.0,32.0,50,32,17,28.71,28.62,0,0,0,0.00
2013-3-5,56.7,32.3,14.9,32.0,32.0,32.0,54,29,17,28.71,28.29,0,0,0,0.00
2013-3-6,59.0,37.8,28.6,32.0,32.0,32.0,50,26,17,28.77,28.29,0,0,0,0.00
2013-3-7,39.2,32.9,28.8,32.0,32.0,32.0,55,47,30,28.94,28.77,0,0,0,0.00
2013-3-8,36.9,29.0,22.8,32.0,32.0,32.0,69,45,30,29.06,28.94,0,0,0,0.00
2013-3-9,60.8,40.6,19.9,32.0,32.0,32.0,56,31,17,29.03,28.71,0,0,0,0.00
2013-3-10,72.9,58.1,46.6,32.0,32.0,32.0,19,17,14,28.71,28.50,0,0,0,0.00
2013-3-11,60.1,50.1,38.8,39.2,33.4,32.0,78,46,17,28.50,28.20,0,0,0,0.00
2013-3-12,38.8,34.8,30.2,32.0,32.0,32.0,57,41,30,28.59,28.38,0,0,0,0.00
2013-3-13,40.5,29.9,26.4,32.0,32.0,32.0,45,33,22,28.77,28.50,0,0,0,0.00
2013-3-14,52.2,32.3,20.7,32.0,32.0,32.0,39,26,19,28.83,28.71,0,0,0,0.00
2013-3-15,45.7,35.9,27.7,32.0,32.0,32.0,65,32,20,28.71,28.47,0,0,0,0.00
2013-3-16,36.1,32.0,27.7,32.0,32.0,32.0,86,72,56,28.62,28.29,0,0,0,0.00
2013-3-17,37.9,30.1,25.3,32.0,32.0,32.0,71,42,21,28.80,28.62,0,0,0,0.00
2013-3-18,43.9,33.4,24.8,44.6,34.3,32.0,98,67,30,28.77,28.20,0,0,0,0.00
2013-3-19,39.2,29.9,25.5,39.2,32.3,32.0,98,39,23,28.56,28.29,0,0,0,0.00
2013-3-20,41.2,27.4,18.7,32.0,32.0,32.0,39,29,20,28.56,28.47,0,0,0,0.00
2013-3-21,40.5,23.5,13.6,32.0,32.0,32.0,48,34,21,28.50,28.44,0,0,0,0.00
2013-3-22,36.9,27.9,23.4,32.0,32.0,32.0,49,37,22,28.62,28.50,0,0,0,0.00
2013-3-23,61.9,32.5,15.8,32.0,32.0,32.0,56,34,16,28.68,28.59,0,0,0,0.00
2013-3-24,37.8,30.7,23.7,32.0,32.0,32.0,47,31,21,28.62,28.35,0,0,0,0.00
2013-3-25,37.4,34.6,30.2,32.0,32.0,32.0,81,46,22,28.44,28.09,0,0,0,0.00
2013-3-26,43.0,34.4,30.0,32.0,32.0,32.0,96,69,29,28.71,28.44,0,0,0,0.00
2013-3-27,57.2,38.8,31.1,32.0,32.0,32.0,80,46,19,28.77,28.68,0,0,0,0.00
2013-3-28,50.4,38.7,32.9,32.0,32.0,32.0,40,27,19,28.85,28.77,0,0,0,0.00
2013-3-29,72.1,44.9,28.9,32.0,32.0,32.0,40,24,14,28.88,28.83,0,0,0,0.00
2013-3-30,59.9,27.7,23.0,32.0,32.0,32.0,42,35,17,28.83,28.83,0,0,0,0.00